Time;durP1;ratioP1;P1;durP2;ratioP2;P2;SDS_P1;SDS_P2;PMS_P1;PMS_P2;Temp;Humidity;BMP_temperature;BMP_pressure;BME280_temperature;BME280_humidity;BME280_pressure;Samples;Min_cycle;Max_cycle;Signal;HPM_P1;HPM_P2
2021/03/23 00:00:55;;;;;;;5.10;4.00;;;;;;;8.77;57.41;101198.47;5081153;28;20483;-67
2021/03/23 00:03:24;;;;;;;8.03;4.83;;;;;;;8.86;57.06;101203.13;5081828;28;20432;-70
2021/03/23 00:05:50;;;;;;;6.47;4.50;;;;;;;8.73;57.41;101199.59;5080676;28;20483;-71
2021/03/23 00:08:27;;;;;;;6.33;4.30;;;;;;;8.85;57.28;101199.63;5079751;28;20447;-71
2021/03/23 00:10:54;;;;;;;9.20;5.20;;;;;;;8.74;57.84;101199.50;5080550;28;20479;-68
2021/03/23 00:13:21;;;;;;;9.53;5.17;;;;;;;8.75;57.84;101206.56;5081632;28;20436;-71
2021/03/23 00:15:47;;;;;;;10.73;4.50;;;;;;;8.77;57.97;101195.78;5080977;28;20468;-71
2021/03/23 00:18:14;;;;;;;7.70;4.80;;;;;;;8.82;58.17;101199.84;5081770;28;20444;-68
2021/03/23 00:20:42;;;;;;;6.93;4.90;;;;;;;8.73;58.44;101211.16;5080852;28;20825;-69
2021/03/23 00:23:08;;;;;;;6.20;4.70;;;;;;;8.81;58.29;101202.59;5081547;28;20451;-70
2021/03/23 00:25:35;;;;;;;8.10;5.47;;;;;;;8.86;58.30;101197.81;5080343;28;20518;-69
2021/03/23 00:28:01;;;;;;;9.10;4.90;;;;;;;8.83;58.57;101198.84;5081733;28;20436;-67
2021/03/23 00:30:28;;;;;;;9.80;5.07;;;;;;;8.69;58.93;101204.28;5080237;28;20472;-68
2021/03/23 00:32:54;;;;;;;8.87;6.67;;;;;;;8.67;59.32;101198.22;5081223;28;20498;-70
2021/03/23 00:35:21;;;;;;;13.00;5.43;;;;;;;8.52;60.24;101202.78;5080512;28;20496;-68
2021/03/23 00:37:50;;;;;;;9.30;5.53;;;;;;;8.79;59.17;101201.88;5080581;28;20755;-70
2021/03/23 00:40:19;;;;;;;12.03;5.37;;;;;;;8.66;59.45;101194.72;5060973;28;20425;-67
2021/03/23 00:42:45;;;;;;;10.57;5.73;;;;;;;8.73;59.78;101202.28;5062266;28;20441;-66
2021/03/23 00:45:12;;;;;;;10.50;5.97;;;;;;;8.69;59.74;101192.78;5080215;28;20533;-70
2021/03/23 00:47:38;;;;;;;9.30;5.37;;;;;;;8.73;59.86;101196.94;5081313;28;20499;-70
2021/03/23 00:50:05;;;;;;;10.37;5.90;;;;;;;8.81;59.88;101190.13;5080377;28;20475;-67
2021/03/23 00:52:31;;;;;;;10.30;6.23;;;;;;;8.73;60.02;101192.47;5081692;28;20452;-71
2021/03/23 00:54:58;;;;;;;9.70;5.33;;;;;;;8.77;60.15;101193.13;5080798;28;20829;-68
2021/03/23 00:57:24;;;;;;;7.70;5.03;;;;;;;8.89;59.95;101196.72;5082092;28;20471;-68
2021/03/23 00:59:50;;;;;;;7.87;5.53;;;;;;;8.80;60.09;101191.09;5085124;28;20444;-68
2021/03/23 01:02:17;;;;;;;8.03;5.70;;;;;;;8.64;60.86;101190.44;5084965;28;20483;-68
2021/03/23 01:04:43;;;;;;;9.20;5.37;;;;;;;8.62;61.11;101195.84;5085189;28;20452;-69
2021/03/23 01:07:09;;;;;;;10.40;5.73;;;;;;;8.75;60.74;101200.34;5083713;28;20496;-70
2021/03/23 01:09:35;;;;;;;7.40;5.40;;;;;;;8.77;60.66;101201.13;5084572;28;20509;-71
2021/03/23 01:12:03;;;;;;;9.60;6.77;;;;;;;8.59;61.32;101198.75;5084470;28;20482;-70
2021/03/23 01:14:29;;;;;;;9.73;6.10;;;;;;;8.66;61.32;101192.03;5084484;28;20517;-71
2021/03/23 01:16:55;;;;;;;11.10;6.40;;;;;;;8.61;61.58;101190.63;5084183;28;20471;-71
2021/03/23 01:19:21;;;;;;;9.00;6.30;;;;;;;8.74;61.50;101188.84;5084459;28;20839;-71
2021/03/23 01:21:48;;;;;;;9.07;6.13;;;;;;;8.65;61.80;101197.47;5084462;28;20491;-71
2021/03/23 01:24:14;;;;;;;8.57;6.00;;;;;;;8.60;61.92;101191.59;5084187;28;20451;-70
2021/03/23 01:26:40;;;;;;;9.10;6.73;;;;;;;8.56;62.28;101190.97;5083294;28;20503;-67
2021/03/23 01:29:07;;;;;;;10.13;6.87;;;;;;;8.71;61.75;101191.72;5084766;28;20440;-70
2021/03/23 01:31:33;;;;;;;12.33;7.43;;;;;;;8.51;62.23;101187.75;5083830;28;20482;-71
2021/03/23 01:33:59;;;;;;;11.33;6.83;;;;;;;8.29;63.02;101190.97;5084404;28;20440;-71
2021/03/23 01:36:26;;;;;;;9.50;6.90;;;;;;;8.44;62.87;101191.78;5083609;28;20475;-71
2021/03/23 01:38:52;;;;;;;8.33;6.30;;;;;;;8.44;63.07;101189.13;5083719;28;20486;-71
2021/03/23 01:41:18;;;;;;;9.63;7.37;;;;;;;8.37;63.31;101188.66;5083086;28;20472;-71
2021/03/23 01:43:44;;;;;;;11.20;7.10;;;;;;;8.35;63.46;101189.69;5084042;28;20444;-71
2021/03/23 01:46:38;;;;;;;7.50;6.00;;;;;;;8.38;63.47;101189.50;5082340;28;20484;-63
2021/03/23 01:49:04;;;;;;;9.13;6.90;;;;;;;8.30;63.56;101180.22;5084676;28;20428;-70
2021/03/23 01:51:30;;;;;;;9.53;6.57;;;;;;;8.34;63.46;101178.19;5083325;28;20475;-70
2021/03/23 01:54:01;;;;;;;9.13;6.53;;;;;;;8.21;63.71;101186.16;5083981;28;20451;-70
2021/03/23 01:56:27;;;;;;;8.90;6.67;;;;;;;8.43;62.98;101192.75;5083104;28;20476;-70
2021/03/23 01:58:54;;;;;;;9.13;6.53;;;;;;;8.55;62.63;101193.72;5084396;28;20451;-70
2021/03/23 02:01:21;;;;;;;10.60;7.70;;;;;;;8.52;62.72;101183.28;5083057;28;20499;-71
2021/03/23 02:03:49;;;;;;;8.47;7.07;;;;;;;8.18;63.72;101189.03;5084146;28;20444;-71
2021/03/23 02:06:34;;;;;;;8.53;7.30;;;;;;;8.44;63.09;101191.78;5082475;28;20479;-67
2021/03/23 02:09:02;;;;;;;7.90;7.10;;;;;;;8.21;63.62;101190.63;5082904;28;20470;-69
2021/03/23 02:11:29;;;;;;;10.10;6.03;;;;;;;8.32;63.10;101180.13;5083101;28;20487;-70
2021/03/23 02:13:56;;;;;;;7.20;6.30;;;;;;;8.29;63.40;101178.50;5083393;28;20447;-69
2021/03/23 02:16:22;;;;;;;11.50;6.60;;;;;;;8.39;63.10;101183.22;5082708;28;20476;-67
2021/03/23 02:18:49;;;;;;;9.57;6.83;;;;;;;8.40;62.92;101182.25;5083718;28;20440;-68
2021/03/23 02:21:18;;;;;;;8.70;6.83;;;;;;;8.28;63.44;101181.25;5083091;28;20537;-71
2021/03/23 02:23:46;;;;;;;8.80;6.27;;;;;;;8.32;63.39;101184.59;5083552;28;20428;-71
2021/03/23 02:26:14;;;;;;;11.80;7.23;;;;;;;8.45;62.79;101181.03;5082403;28;20476;-70
2021/03/23 02:28:42;;;;;;;8.77;6.53;;;;;;;8.31;63.10;101181.06;5083417;28;20447;-70
2021/03/23 02:31:08;;;;;;;9.53;5.80;;;;;;;8.08;63.35;101185.28;5082884;28;20829;-70
2021/03/23 02:33:35;;;;;;;9.33;6.73;;;;;;;8.27;62.97;101179.56;5083342;28;20932;-70
2021/03/23 02:36:01;;;;;;;8.03;5.83;;;;;;;8.15;63.32;101172.41;5082595;28;20484;-70
2021/03/23 02:38:28;;;;;;;7.60;6.80;;;;;;;8.26;62.86;101172.53;5082737;28;20811;-70
2021/03/23 02:40:54;;;;;;;11.00;6.40;;;;;;;8.10;63.01;101175.34;5082366;28;21007;-71
2021/03/23 02:43:20;;;;;;;8.20;5.90;;;;;;;7.89;63.80;101182.97;5083123;28;20448;-70
2021/03/23 02:45:54;;;;;;;6.67;5.60;;;;;;;8.21;62.75;101188.84;5081794;28;20488;-71
2021/03/23 02:48:20;;;;;;;7.80;6.80;;;;;;;8.18;62.53;101196.19;5083045;28;20439;-71
2021/03/23 02:50:46;;;;;;;7.03;5.67;;;;;;;8.32;61.91;101181.94;5082122;28;20488;-70
2021/03/23 02:53:13;;;;;;;8.20;7.40;;;;;;;8.11;62.88;101175.25;5083293;28;20459;-69
2021/03/23 02:55:40;;;;;;;8.80;6.47;;;;;;;7.98;62.97;101182.34;5082049;28;20467;-69
2021/03/23 02:58:06;;;;;;;8.40;5.83;;;;;;;8.09;62.66;101176.34;5083258;28;20436;-71
2021/03/23 03:00:32;;;;;;;8.13;6.30;;;;;;;8.32;62.02;101180.13;5081977;28;20478;-71
2021/03/23 03:02:58;;;;;;;9.60;6.23;;;;;;;8.15;62.25;101180.38;5082243;28;20451;-71
2021/03/23 03:05:25;;;;;;;10.27;5.97;;;;;;;8.18;62.34;101183.72;5081799;28;20525;-71
2021/03/23 03:07:51;;;;;;;8.97;6.27;;;;;;;7.97;62.97;101180.66;5082506;28;20467;-70
2021/03/23 03:10:18;;;;;;;8.73;6.57;;;;;;;7.96;63.04;101180.75;5081703;28;20877;-69
2021/03/23 03:12:45;;;;;;;7.40;6.60;;;;;;;7.89;63.29;101183.81;5083121;28;20440;-71
2021/03/23 03:15:12;;;;;;;8.60;6.63;;;;;;;8.22;62.30;101173.69;5080968;28;20448;-71
2021/03/23 03:17:38;;;;;;;8.00;5.53;;;;;;;8.25;62.32;101174.34;5082856;28;20421;-71
2021/03/23 03:20:06;;;;;;;7.57;5.80;;;;;;;8.14;62.48;101181.34;5080740;28;20447;-68
2021/03/23 03:22:32;;;;;;;7.03;6.37;;;;;;;8.08;62.59;101177.28;5082292;28;20494;-71
2021/03/23 03:24:58;;;;;;;8.67;5.70;;;;;;;8.07;62.54;101178.22;5082246;28;20448;-68
2021/03/23 03:27:25;;;;;;;7.57;5.50;;;;;;;8.21;62.24;101180.84;5081115;28;21076;-71
2021/03/23 03:29:52;;;;;;;8.33;6.17;;;;;;;8.21;62.02;101187.97;5082594;28;20459;-71
2021/03/23 03:32:18;;;;;;;10.33;5.77;;;;;;;8.08;62.38;101174.63;5081955;28;20472;-71
2021/03/23 03:34:44;;;;;;;5.60;4.87;;;;;;;8.02;62.45;101181.22;5081957;28;20948;-69
2021/03/23 03:37:10;;;;;;;6.07;5.23;;;;;;;7.98;62.55;101179.69;5081801;28;20495;-70
2021/03/23 03:39:36;;;;;;;8.20;5.57;;;;;;;8.05;62.37;101188.97;5081533;28;20440;-70
2021/03/23 03:42:03;;;;;;;7.13;4.73;;;;;;;8.15;61.29;101183.91;5080957;28;20480;-71
2021/03/23 03:44:29;;;;;;;5.33;4.80;;;;;;;8.16;61.11;101184.75;5081874;28;20463;-68
2021/03/23 03:46:56;;;;;;;8.40;4.97;;;;;;;8.07;61.55;101184.44;5081038;28;20480;-68
2021/03/23 03:49:22;;;;;;;6.43;5.43;;;;;;;8.10;61.39;101191.34;5081597;28;20513;-70
2021/03/23 03:51:49;;;;;;;5.67;4.37;;;;;;;8.02;61.34;101194.53;5081358;28;20506;-67
2021/03/23 03:54:15;;;;;;;6.10;4.80;;;;;;;8.11;60.73;101185.91;5082007;28;20447;-70
2021/03/23 03:56:41;;;;;;;6.33;4.70;;;;;;;8.09;60.76;101179.84;5080953;28;20483;-70
2021/03/23 03:59:07;;;;;;;6.63;4.27;;;;;;;7.98;60.75;101184.16;5081586;28;20452;-69
2021/03/23 04:01:34;;;;;;;7.03;4.77;;;;;;;8.21;60.49;101178.19;5080931;28;20524;-67
2021/03/23 04:04:01;;;;;;;8.83;4.37;;;;;;;8.18;60.40;101182.84;5082057;28;20783;-71
2021/03/23 04:06:27;;;;;;;6.20;4.33;;;;;;;8.20;60.56;101183.59;5080475;28;20844;-71
2021/03/23 04:08:53;;;;;;;6.50;4.53;;;;;;;8.05;60.42;101180.97;5081212;28;20431;-71
2021/03/23 04:11:19;;;;;;;6.00;4.00;;;;;;;8.15;60.39;101173.25;5080100;28;20487;-70
2021/03/23 04:13:45;;;;;;;9.87;4.43;;;;;;;8.21;59.90;101179.97;5081601;28;20440;-71
2021/03/23 04:16:12;;;;;;;4.20;3.80;;;;;;;8.23;59.76;101180.75;5080746;28;20476;-71
2021/03/23 04:18:38;;;;;;;8.20;4.63;;;;;;;8.28;59.43;101183.94;5081858;28;20784;-71
2021/03/23 04:21:06;;;;;;;5.70;4.57;;;;;;;8.38;59.31;101185.00;5080520;28;20475;-71
2021/03/23 04:23:35;;;;;;;6.50;4.17;;;;;;;8.39;59.60;101189.41;5081324;28;20810;-70
2021/03/23 04:26:01;;;;;;;6.20;4.77;;;;;;;8.34;59.71;101201.34;5080260;28;20997;-71
2021/03/23 04:28:28;;;;;;;6.57;4.70;;;;;;;8.23;59.42;101196.72;5081817;28;20444;-68
2021/03/23 04:30:55;;;;;;;6.20;4.47;;;;;;;8.38;59.51;101198.34;5080450;28;20480;-69
2021/03/23 04:33:25;;;;;;;8.13;4.80;;;;;;;8.19;59.87;101201.38;5081233;28;20432;-71
2021/03/23 04:35:53;;;;;;;8.50;4.20;;;;;;;8.30;59.34;101200.69;5080266;28;20484;-69
2021/03/23 04:38:21;;;;;;;8.00;4.23;;;;;;;8.34;59.18;101202.19;5081244;28;20463;-68
2021/03/23 04:40:48;;;;;;;7.07;4.53;;;;;;;8.42;59.42;101193.66;5079786;28;20502;-70
2021/03/23 04:43:20;;;;;;;5.93;4.63;;;;;;;8.20;59.82;101194.25;5081883;28;20431;-70
2021/03/23 04:45:46;;;;;;;5.00;4.40;;;;;;;8.18;60.03;101188.19;5079800;28;20486;-71
2021/03/23 04:48:13;;;;;;;6.63;4.27;;;;;;;8.13;60.62;101176.97;5081576;28;20452;-70
2021/03/23 04:50:39;;;;;;;6.90;5.30;;;;;;;7.85;60.37;101179.66;5080474;28;20529;-71
2021/03/23 04:53:05;;;;;;;7.90;4.20;;;;;;;8.09;60.00;101181.66;5081249;28;20451;-70
2021/03/23 04:55:32;;;;;;;5.43;4.87;;;;;;;8.03;60.19;101184.72;5080161;28;20474;-69
2021/03/23 04:57:58;;;;;;;7.47;5.50;;;;;;;7.94;59.81;101188.00;5080878;28;20448;-70
2021/03/23 05:00:25;;;;;;;7.90;4.47;;;;;;;8.00;59.94;101193.78;5080156;28;20490;-70
2021/03/23 05:02:51;;;;;;;5.83;4.87;;;;;;;7.98;60.13;101185.00;5081261;28;20432;-71
2021/03/23 05:05:17;;;;;;;5.47;4.93;;;;;;;7.91;60.28;101183.72;5060440;28;20928;-71
2021/03/23 05:07:43;;;;;;;5.80;4.87;;;;;;;8.02;59.84;101193.66;5060015;28;20485;-71
2021/03/23 05:10:11;;;;;;;6.60;5.07;;;;;;;8.16;59.39;101201.59;5078170;28;20455;-69
2021/03/23 05:12:39;;;;;;;5.53;4.90;;;;;;;8.13;59.33;101198.28;5081306;28;20448;-70
2021/03/23 05:15:07;;;;;;;7.27;4.90;;;;;;;8.23;59.07;101197.56;5071717;28;20527;-67
2021/03/23 05:17:33;;;;;;;6.27;5.50;;;;;;;8.24;59.27;101182.44;5076527;28;20527;-69
2021/03/23 05:19:59;;;;;;;5.70;4.67;;;;;;;8.13;59.33;101192.97;5078317;28;20436;-69
2021/03/23 05:22:25;;;;;;;6.87;5.20;;;;;;;8.17;59.03;101192.63;5078378;28;20487;-67
2021/03/23 05:24:52;;;;;;;6.27;5.63;;;;;;;8.16;59.24;101187.41;5078801;28;20467;-67
2021/03/23 05:27:18;;;;;;;7.80;5.57;;;;;;;8.20;59.01;101187.13;5079242;28;20705;-67
2021/03/23 05:29:45;;;;;;;7.33;5.30;;;;;;;8.08;59.33;101190.59;5079232;28;20455;-70
2021/03/23 05:32:11;;;;;;;10.00;5.70;;;;;;;7.98;59.49;101181.50;5076667;28;20503;-69
2021/03/23 05:34:37;;;;;;;5.97;5.27;;;;;;;8.08;59.34;101185.28;5079558;28;20479;-70
2021/03/23 05:37:04;;;;;;;6.10;5.00;;;;;;;8.05;59.51;101177.47;5079155;28;20503;-67
2021/03/23 05:39:30;;;;;;;10.60;5.60;;;;;;;8.05;59.53;101185.47;5078696;28;20440;-70
2021/03/23 05:42:00;;;;;;;7.37;5.63;;;;;;;8.01;59.33;101198.13;5079327;28;20482;-70
2021/03/23 05:44:43;;;;;;;6.00;4.93;;;;;;;8.04;60.15;101200.59;5082412;28;20465;-71
2021/03/23 05:47:11;;;;;;;6.13;5.53;;;;;;;8.26;58.74;101205.38;5082009;28;20550;-69
2021/03/23 05:49:40;;;;;;;6.23;5.13;;;;;;;8.04;59.79;101207.75;5083471;28;20440;-70
2021/03/23 05:52:14;;;;;;;6.73;5.17;;;;;;;8.19;59.28;101208.53;5082835;28;20490;-68
2021/03/23 05:54:46;;;;;;;7.20;5.90;;;;;;;8.28;58.46;101214.09;5072079;28;20455;-67
2021/03/23 05:57:19;;;;;;;6.57;5.37;;;;;;;8.44;58.12;101219.28;5081847;28;20471;-70
2021/03/23 05:59:50;;;;;;;6.87;5.23;;;;;;;8.46;57.96;101224.53;5082678;28;20443;-71
2021/03/23 06:02:24;;;;;;;5.90;4.97;;;;;;;8.54;57.96;101224.00;5079883;28;21169;-70
2021/03/23 06:04:58;;;;;;;10.17;5.73;;;;;;;8.61;57.53;101230.63;5083077;28;20462;-68
2021/03/23 06:07:25;;;;;;;6.37;5.40;;;;;;;8.46;58.06;101227.19;5080613;28;20503;-71
2021/03/23 06:09:51;;;;;;;9.43;6.20;;;;;;;8.36;58.21;101234.91;5080623;28;20432;-70
2021/03/23 06:12:28;;;;;;;6.47;4.90;;;;;;;8.29;58.28;101241.59;5081874;28;20856;-70
2021/03/23 06:15:08;;;;;;;7.20;6.00;;;;;;;8.45;57.84;101246.78;5081027;28;20745;-70
2021/03/23 06:17:43;;;;;;;8.90;5.83;;;;;;;8.55;57.84;101245.22;5078188;28;20463;-70
2021/03/23 06:20:29;;;;;;;5.57;4.60;;;;;;;8.40;57.95;101244.41;5081840;28;20513;-70
2021/03/23 06:23:12;;;;;;;9.13;5.43;;;;;;;8.10;58.77;101244.59;5083075;28;20447;-71
2021/03/23 06:25:43;;;;;;;6.83;5.53;;;;;;;8.10;58.98;101237.47;5081452;28;20480;-69
2021/03/23 06:28:19;;;;;;;6.87;5.40;;;;;;;8.40;58.40;101248.88;5081652;28;20471;-71
2021/03/23 06:30:51;;;;;;;7.10;5.53;;;;;;;8.58;57.70;101242.34;5081396;28;20497;-70
2021/03/23 06:33:20;;;;;;;8.03;5.97;;;;;;;8.69;57.26;101240.78;5082636;28;20444;-70
2021/03/23 06:35:49;;;;;;;5.87;5.23;;;;;;;8.77;56.66;101241.13;5080314;28;20484;-68
2021/03/23 06:38:21;;;;;;;6.70;6.07;;;;;;;8.78;57.18;101235.66;5082161;28;20448;-69
2021/03/23 06:41:10;;;;;;;6.93;5.20;;;;;;;8.65;56.96;101232.13;5081295;28;20490;-68
2021/03/23 06:43:38;;;;;;;10.03;5.57;;;;;;;8.74;56.80;101236.81;5080938;28;20459;-71
2021/03/23 06:46:06;;;;;;;7.60;5.90;;;;;;;8.90;56.14;101238.44;5080765;28;20502;-68
2021/03/23 06:48:34;;;;;;;7.63;5.20;;;;;;;8.91;55.77;101241.03;5076467;28;20436;-62
2021/03/23 06:51:10;;;;;;;9.67;5.70;;;;;;;8.73;56.72;101229.81;5077317;28;20486;-65
2021/03/23 06:53:36;;;;;;;9.00;5.37;;;;;;;8.91;56.31;101235.69;5080695;28;20913;-64
2021/03/23 06:56:18;;;;;;;8.97;5.43;;;;;;;8.98;55.71;101249.47;5080891;28;20476;-67
2021/03/23 06:58:44;;;;;;;7.23;5.97;;;;;;;8.94;55.90;101235.47;5081457;28;20451;-63
2021/03/23 07:01:24;;;;;;;6.90;5.90;;;;;;;8.85;56.91;101230.75;5080148;28;20479;-65
2021/03/23 07:03:52;;;;;;;10.63;6.00;;;;;;;8.56;56.70;101224.75;5082373;28;20455;-68
2021/03/23 07:06:22;;;;;;;12.47;5.17;;;;;;;9.11;55.55;101228.94;5080442;28;20509;-66
2021/03/23 07:09:06;;;;;;;7.50;6.30;;;;;;;8.67;55.87;101222.22;5081487;28;20440;-69
2021/03/23 07:11:51;;;;;;;12.10;7.13;;;;;;;9.01;55.67;101219.91;5080830;28;20970;-69
2021/03/23 07:14:23;;;;;;;7.40;5.80;;;;;;;9.46;54.32;101222.97;5078916;28;20459;-69
2021/03/23 07:16:50;;;;;;;9.80;7.30;;;;;;;9.32;54.28;101223.94;5080886;28;20487;-69
2021/03/23 07:19:17;;;;;;;7.47;5.77;;;;;;;9.26;54.12;101227.03;5081333;28;20901;-70
2021/03/23 07:21:50;;;;;;;8.67;6.73;;;;;;;9.27;53.85;101223.41;5080296;28;20542;-72
2021/03/23 07:24:18;;;;;;;7.50;6.40;;;;;;;9.10;54.17;101221.09;5081980;28;20432;-69
2021/03/23 07:26:56;;;;;;;11.77;6.83;;;;;;;9.31;54.07;101214.22;5072490;28;20575;-69
2021/03/23 07:29:28;;;;;;;9.23;6.53;;;;;;;9.58;53.34;101214.06;5073967;28;20452;-70
2021/03/23 07:32:15;;;;;;;10.63;6.60;;;;;;;9.37;53.39;101212.91;5080993;28;20630;-66
2021/03/23 07:34:55;;;;;;;8.93;6.70;;;;;;;9.60;53.06;101230.00;5080467;28;20562;-65
2021/03/23 07:37:24;;;;;;;9.43;6.60;;;;;;;9.73;53.02;101222.78;5078725;28;20487;-65
2021/03/23 07:39:54;;;;;;;11.33;6.47;;;;;;;9.85;53.00;101225.53;5080907;28;20481;-66
2021/03/23 07:42:26;;;;;;;12.10;7.53;;;;;;;9.34;53.46;101222.03;5079872;28;20479;-64
2021/03/23 07:44:55;;;;;;;12.03;7.00;;;;;;;9.15;53.71;101218.91;5080149;28;21033;-65
2021/03/23 07:47:28;;;;;;;9.97;6.87;;;;;;;9.21;53.86;101230.00;5080570;28;20612;-68
2021/03/23 07:49:58;;;;;;;8.03;6.63;;;;;;;9.44;52.94;101227.53;5079959;28;20440;-65
2021/03/23 07:52:29;;;;;;;11.43;6.43;;;;;;;9.73;52.38;101241.47;5078838;28;20497;-66
2021/03/23 07:54:58;;;;;;;9.60;6.07;;;;;;;9.67;52.26;101236.59;5080843;28;20448;-64
2021/03/23 07:57:50;;;;;;;9.10;6.67;;;;;;;9.43;52.69;101236.53;5073745;28;20479;-64
2021/03/23 08:00:23;;;;;;;10.50;7.90;;;;;;;9.72;52.55;101236.25;5074843;28;20522;-67
2021/03/23 08:02:57;;;;;;;10.80;7.83;;;;;;;9.45;52.63;101228.41;5067972;28;20467;-64
2021/03/23 08:05:32;;;;;;;19.00;7.87;;;;;;;9.22;53.38;101222.88;5078880;28;20459;-64
2021/03/23 08:08:07;;;;;;;11.47;7.40;;;;;;;9.89;52.25;101221.66;5080275;28;20518;-67
2021/03/23 08:10:35;;;;;;;11.87;8.23;;;;;;;9.79;52.50;101213.47;5078884;28;20471;-62
2021/03/23 08:13:42;;;;;;;10.43;7.70;;;;;;;9.61;52.99;101219.16;5077534;28;20508;-63
2021/03/23 08:16:12;;;;;;;13.30;9.30;;;;;;;9.47;53.11;101221.16;5065129;28;20463;-68
2021/03/23 08:18:53;;;;;;;11.23;8.13;;;;;;;9.04;54.14;101222.34;5080646;28;20458;-64
2021/03/23 08:22:01;;;;;;;13.63;9.57;;;;;;;9.47;53.21;101223.81;5076676;28;21011;-66
2021/03/23 08:24:40;;;;;;;11.50;8.33;;;;;;;9.56;52.80;101225.81;5078057;28;20459;-65
2021/03/23 08:27:18;;;;;;;12.20;8.17;;;;;;;9.36;53.43;101220.09;5078394;28;20533;-62
2021/03/23 08:29:50;;;;;;;9.07;7.83;;;;;;;9.61;53.23;101226.34;5079009;28;20521;-63
2021/03/23 08:32:22;;;;;;;11.17;9.20;;;;;;;9.84;52.58;101226.50;5079765;28;20494;-63
2021/03/23 08:35:21;;;;;;;13.87;8.97;;;;;;;10.09;52.04;101222.88;5079654;28;20451;-62
2021/03/23 08:38:09;;;;;;;13.83;9.70;;;;;;;10.04;52.04;101222.38;5079039;28;20533;-66
2021/03/23 08:40:41;;;;;;;19.00;10.23;;;;;;;9.98;52.11;101218.31;5078568;28;20478;-67
2021/03/23 08:43:11;;;;;;;11.73;8.97;;;;;;;10.52;51.22;101233.06;5079424;28;20448;-67
2021/03/23 08:45:43;;;;;;;15.00;9.80;;;;;;;10.08;51.59;101218.50;5079249;28;20954;-63
2021/03/23 08:48:22;;;;;;;12.27;9.47;;;;;;;10.26;51.54;101217.13;5079421;28;20814;-62
2021/03/23 08:50:49;;;;;;;13.63;8.13;;;;;;;10.73;50.38;101215.38;5077744;28;20460;-62
2021/03/23 08:53:40;;;;;;;15.13;9.87;;;;;;;11.29;49.13;101216.41;5079300;28;20792;-61
2021/03/23 08:56:08;;;;;;;11.50;9.10;;;;;;;12.28;46.86;101211.16;5075968;28;20791;-60
2021/03/23 08:58:50;;;;;;;18.50;10.10;;;;;;;11.98;46.50;101220.75;5079228;28;20437;-62
2021/03/23 09:01:38;;;;;;;16.43;9.57;;;;;;;12.50;45.06;101208.38;5079089;28;20479;-60
2021/03/23 09:04:28;;;;;;;14.47;10.37;;;;;;;12.44;44.65;101212.41;5079425;28;20458;-66
2021/03/23 09:06:55;;;;;;;15.30;10.50;;;;;;;12.87;44.00;101215.13;5078337;28;20484;-63
2021/03/23 09:09:34;;;;;;;18.80;10.83;;;;;;;13.13;43.11;101205.66;5079099;28;20800;-62
2021/03/23 09:12:06;;;;;;;15.67;10.87;;;;;;;14.95;40.14;101216.13;5058643;28;20583;-61
2021/03/23 09:14:34;;;;;;;19.83;11.13;;;;;;;13.81;41.14;101210.44;5071558;28;20459;-64
2021/03/23 09:17:20;;;;;;;17.40;12.00;;;;;;;12.57;43.95;101216.75;5078116;28;20570;-64
2021/03/23 09:19:55;;;;;;;17.07;12.17;;;;;;;13.48;42.00;101219.69;5083273;28;20506;-62
2021/03/23 09:22:31;;;;;;;18.17;11.80;;;;;;;13.61;42.16;101217.63;5081700;28;20482;-63
2021/03/23 09:25:46;;;;;;;19.60;12.10;;;;;;;12.79;43.82;101210.38;5083427;28;20439;-63
2021/03/23 09:28:50;;;;;;;18.23;13.00;;;;;;;12.39;44.00;101214.66;5063755;28;20476;-63
2021/03/23 09:31:35;;;;;;;19.80;12.80;;;;;;;12.04;45.23;101225.59;5082189;28;20471;-63
2021/03/23 09:34:02;;;;;;;18.40;12.60;;;;;;;12.21;45.52;101219.69;5069881;28;20455;-63
2021/03/23 09:36:45;;;;;;;20.73;12.57;;;;;;;12.40;45.28;101221.69;5078745;28;20490;-67
2021/03/23 09:39:34;;;;;;;17.93;13.43;;;;;;;12.11;45.52;101212.53;5082932;28;20424;-63
2021/03/23 09:42:21;;;;;;;25.80;14.83;;;;;;;11.65;46.48;101214.47;5081873;28;20487;-63
2021/03/23 09:45:04;;;;;;;19.53;13.13;;;;;;;11.71;46.84;101224.66;5081650;28;20444;-62
2021/03/23 09:47:41;;;;;;;18.97;13.10;;;;;;;11.61;47.30;101218.34;5074300;28;20549;-69
2021/03/23 09:50:23;;;;;;;23.37;13.67;;;;;;;12.14;46.71;101214.97;5061380;28;20439;-65
2021/03/23 09:52:51;;;;;;;18.47;13.80;;;;;;;12.58;45.11;101221.97;5081203;28;20439;-65
2021/03/23 09:55:18;;;;;;;26.30;15.63;;;;;;;12.21;45.89;101219.69;5062931;28;20448;-63
2021/03/23 09:57:52;;;;;;;21.20;14.40;;;;;;;12.83;45.42;101225.25;5071780;28;20571;-66
2021/03/23 10:00:25;;;;;;;29.70;16.47;;;;;;;12.46;45.10;101224.84;5064224;28;20445;-66
2021/03/23 10:02:51;;;;;;;27.90;16.40;;;;;;;12.20;45.61;101226.06;5082950;28;20447;-72
2021/03/23 10:05:19;;;;;;;27.00;16.93;;;;;;;12.52;45.40;101222.50;5081214;28;20448;-71
2021/03/23 10:07:47;;;;;;;25.87;16.30;;;;;;;12.56;45.14;101204.31;5069518;28;20476;-70
2021/03/23 10:10:24;;;;;;;24.80;16.87;;;;;;;12.44;45.39;101206.19;5081901;28;20454;-69
2021/03/23 10:12:51;;;;;;;26.03;16.93;;;;;;;12.89;44.51;101210.47;5080127;28;20535;-67
2021/03/23 10:15:19;;;;;;;23.00;16.87;;;;;;;12.60;44.07;101197.69;5069104;28;20451;-67
2021/03/23 10:17:46;;;;;;;24.67;16.37;;;;;;;12.97;44.27;101199.91;5079691;28;20444;-70
2021/03/23 10:20:15;;;;;;;22.63;16.77;;;;;;;14.06;42.04;101200.16;5061332;28;20457;-70
2021/03/23 10:22:41;;;;;;;25.80;16.80;;;;;;;14.37;41.43;101200.03;5061934;28;20453;-72
2021/03/23 10:25:15;;;;;;;26.73;17.10;;;;;;;13.66;42.02;101193.00;5062031;28;20524;-70
2021/03/23 10:27:42;;;;;;;22.20;16.83;;;;;;;14.31;41.94;101185.31;5061751;28;20488;-71
2021/03/23 10:30:12;;;;;;;21.00;16.77;;;;;;;16.53;37.37;101175.47;5066225;28;20452;-68
2021/03/23 10:32:45;;;;;;;24.13;17.43;;;;;;;17.68;34.56;101181.53;5062280;28;20448;-69
2021/03/23 10:35:16;;;;;;;21.93;16.90;;;;;;;17.48;34.53;101171.97;5062494;28;20477;-67
2021/03/23 10:37:43;;;;;;;24.47;18.20;;;;;;;15.39;37.67;101173.28;5066912;28;20476;-68
2021/03/23 10:40:29;;;;;;;25.33;18.50;;;;;;;16.15;38.11;101168.59;5061275;28;20459;-68
2021/03/23 10:42:56;;;;;;;27.50;19.30;;;;;;;16.77;35.96;101165.88;5060905;28;20456;-69
2021/03/23 10:45:27;;;;;;;27.33;17.80;;;;;;;14.30;39.89;101152.19;5070785;28;20451;-67
2021/03/23 10:48:07;;;;;;;29.87;19.57;;;;;;;14.58;40.63;101175.66;5078297;28;20480;-69
2021/03/23 10:50:36;;;;;;;31.50;19.73;;;;;;;15.61;38.52;101169.34;5060773;28;20464;-67
2021/03/23 10:53:19;;;;;;;30.93;19.47;;;;;;;15.58;37.17;101176.88;5061946;28;20441;-70
2021/03/23 10:55:47;;;;;;;29.70;20.70;;;;;;;16.09;37.45;101163.78;5057281;28;20477;-68
2021/03/23 10:58:19;;;;;;;24.57;18.97;;;;;;;16.75;36.19;101157.06;5061100;28;20491;-68
2021/03/23 11:00:47;;;;;;;26.33;19.23;;;;;;;17.07;34.95;101163.72;5067032;28;20910;-68
2021/03/23 11:03:16;;;;;;;27.33;20.00;;;;;;;17.31;35.21;101160.28;5080772;28;20497;-70
2021/03/23 11:05:45;;;;;;;27.27;19.67;;;;;;;16.08;36.86;101144.06;5058689;28;20468;-66
2021/03/23 11:08:13;;;;;;;24.97;20.30;;;;;;;16.26;36.98;101151.31;5058003;28;20481;-68
2021/03/23 11:10:39;;;;;;;28.10;20.80;;;;;;;17.44;35.10;101152.53;5071244;28;20471;-69
2021/03/23 11:13:06;;;;;;;30.70;20.93;;;;;;;17.31;35.83;101153.00;5090642;28;20463;-70
2021/03/23 11:15:37;;;;;;;28.20;19.60;;;;;;;16.85;36.01;101152.44;5080659;28;20494;-68
2021/03/23 11:18:05;;;;;;;24.97;19.27;;;;;;;17.86;35.00;101156.25;5079208;28;20486;-68
2021/03/23 11:20:35;;;;;;;28.43;20.20;;;;;;;17.81;35.24;101150.44;5066610;28;20491;-68
2021/03/23 11:23:05;;;;;;;25.30;19.50;;;;;;;17.96;34.50;101148.81;5068036;28;20805;-68
2021/03/23 11:25:32;;;;;;;25.93;19.87;;;;;;;16.54;36.91;101155.59;5076179;28;20464;-67
2021/03/23 11:28:02;;;;;;;28.67;20.40;;;;;;;17.18;36.00;101154.47;5059812;28;20481;-66
2021/03/23 11:30:29;;;;;;;29.97;20.43;;;;;;;16.97;37.26;101155.72;5071150;28;20468;-66
2021/03/23 11:32:55;;;;;;;28.23;21.10;;;;;;;16.79;36.36;101162.97;5065942;28;20455;-66
2021/03/23 11:35:22;;;;;;;26.70;20.80;;;;;;;16.81;36.70;101161.00;5062209;28;20495;-66
2021/03/23 11:37:48;;;;;;;31.00;21.30;;;;;;;17.02;36.32;101155.25;5077038;28;20448;-66
2021/03/23 11:40:17;;;;;;;33.37;19.70;;;;;;;16.86;36.77;101154.13;5068073;28;20455;-67
2021/03/23 11:42:45;;;;;;;29.83;20.17;;;;;;;17.37;36.16;101148.81;5072372;28;20518;-67